Terminal Aerodrome Forecast
Issued by NWS Sterling, VA

Current Version | Previous Version | Text Only | Print | Product List | Glossary Off
Versions: 1 2 3 4 5 6 7 8 9 10 11 12 13 14 15 16 17 18 19 20 21 22 23

000
FTUS41 KLWX 251700
TAFIAD
TAF
KIAD 251727Z 2518/2624 29014G27KT P6SM BKN050
     FM252000 29011G19KT P6SM SCT050
     FM252200 29009KT P6SM SCT050
     FM260000 29007KT P6SM FEW250
     FM260600 VRB03KT P6SM SKC=

USA.gov is the U.S. government's official web portal to all federal, state and local government web resources and services.